WMT7203 LROP-LRBC
Flight info
| Callsign | WMT7203 |
|---|---|
| Flight time | 0h 28m |
| Altitude | 17000 |
| Route | DENAK DCT FOCSA/N0278F090 T74 KENUX |
| Aircraft | A20N/M-SDE2E3FGHIRWXY/LB1 |
Departure
| Time | 2026-04-21 23:23 |
|---|---|
| Airport | Bucharest Henri Coandă International Airport (LROP) |
Arrival
| Time | 2026-04-21 23:51 |
|---|---|
| Airport | Bacău George Enescu International Airport (LRBC) |
| Time | Latitude | Longitude | Altitude | Speed | Heading |
|---|---|---|---|---|---|
| 2026-04-21 22:52 | 44.57027 | 26.08131 | 322 ft | 0 kts | 353° |
| 2026-04-21 23:13 | 44.57018 | 26.08133 | 321 ft | 2 kts | 353° |
| 2026-04-21 23:13 | 44.57010 | 26.08134 | 319 ft | 1 kts | 353° |
| 2026-04-21 23:14 | 44.56997 | 26.08136 | 320 ft | 2 kts | 353° |
| 2026-04-21 23:14 | 44.56982 | 26.08138 | 318 ft | 2 kts | 353° |
| 2026-04-21 23:14 | 44.56974 | 26.08140 | 318 ft | 2 kts | 343° |
| 2026-04-21 23:15 | 44.56964 | 26.08145 | 318 ft | 2 kts | 330° |
| 2026-04-21 23:15 | 44.56952 | 26.08157 | 318 ft | 2 kts | 311° |
| 2026-04-21 23:15 | 44.56943 | 26.08174 | 319 ft | 2 kts | 292° |
| 2026-04-21 23:16 | 44.56939 | 26.08194 | 320 ft | 2 kts | 274° |
| 2026-04-21 23:16 | 44.56938 | 26.08201 | 319 ft | 0 kts | 268° |
| 2026-04-21 23:18 | 44.56938 | 26.08195 | 320 ft | 2 kts | 268° |
| 2026-04-21 23:18 | 44.56937 | 26.08149 | 319 ft | 7 kts | 268° |
| 2026-04-21 23:18 | 44.56930 | 26.08063 | 322 ft | 11 kts | 263° |
| 2026-04-21 23:19 | 44.56882 | 26.07987 | 320 ft | 12 kts | 185° |
| 2026-04-21 23:19 | 44.56818 | 26.07991 | 319 ft | 1 kts | 172° |
| 2026-04-21 23:19 | 44.56796 | 26.07995 | 322 ft | 6 kts | 175° |
| 2026-04-21 23:19 | 44.56752 | 26.07969 | 320 ft | 9 kts | 230° |
| 2026-04-21 23:20 | 44.56730 | 26.07873 | 320 ft | 12 kts | 256° |
| 2026-04-21 23:20 | 44.56702 | 26.07744 | 320 ft | 16 kts | 253° |
| 2026-04-21 23:20 | 44.56625 | 26.07679 | 319 ft | 15 kts | 186° |
| 2026-04-21 23:20 | 44.56590 | 26.07675 | 322 ft | 0 kts | 181° |
| 2026-04-21 23:21 | 44.56575 | 26.07676 | 319 ft | 5 kts | 177° |
| 2026-04-21 23:21 | 44.56522 | 26.07688 | 321 ft | 10 kts | 169° |
| 2026-04-21 23:21 | 44.56469 | 26.07740 | 321 ft | 7 kts | 98° |
| 2026-04-21 23:22 | 44.56470 | 26.07786 | 321 ft | 0 kts | 84° |
| 2026-04-21 23:22 | 44.56473 | 26.07811 | 322 ft | 6 kts | 79° |
| 2026-04-21 23:22 | 44.56497 | 26.08101 | 322 ft | 66 kts | 84° |
| 2026-04-21 23:23 | 44.56570 | 26.09064 | 319 ft | 129 kts | 84° |
| 2026-04-21 23:23 | 44.56686 | 26.10486 | 482 ft | 160 kts | 82° |
| 2026-04-21 23:23 | 44.56839 | 26.12122 | 968 ft | 173 kts | 81° |
| 2026-04-21 23:23 | 44.57011 | 26.13771 | 1734 ft | 172 kts | 83° |
| 2026-04-21 23:24 | 44.57100 | 26.15414 | 2493 ft | 171 kts | 88° |
| 2026-04-21 23:24 | 44.57176 | 26.17154 | 2893 ft | 188 kts | 86° |
| 2026-04-21 23:24 | 44.57293 | 26.19075 | 3224 ft | 208 kts | 85° |
| 2026-04-21 23:24 | 44.57446 | 26.21204 | 3625 ft | 232 kts | 84° |
| 2026-04-21 23:25 | 44.57628 | 26.23563 | 4260 ft | 252 kts | 84° |
| 2026-04-21 23:25 | 44.57822 | 26.26041 | 5312 ft | 259 kts | 84° |
| 2026-04-21 23:25 | 44.58020 | 26.28584 | 6402 ft | 266 kts | 83° |
| 2026-04-21 23:25 | 44.58221 | 26.31199 | 7395 ft | 274 kts | 83° |
| 2026-04-21 23:26 | 44.58427 | 26.33886 | 8432 ft | 280 kts | 83° |
| 2026-04-21 23:26 | 44.58958 | 26.36527 | 9441 ft | 285 kts | 59° |
| 2026-04-21 23:26 | 44.60249 | 26.38622 | 10419 ft | 289 kts | 34° |
| 2026-04-21 23:26 | 44.62107 | 26.39855 | 10927 ft | 307 kts | 10° |
| 2026-04-21 23:27 | 44.64294 | 26.39926 | 11358 ft | 325 kts | 347° |
| 2026-04-21 23:27 | 44.66374 | 26.38698 | 12167 ft | 328 kts | 323° |
| 2026-04-21 23:27 | 44.68054 | 26.36531 | 13168 ft | 330 kts | 311° |
| 2026-04-21 23:27 | 44.69713 | 26.34270 | 14118 ft | 335 kts | 320° |
| 2026-04-21 23:28 | 44.71713 | 26.32548 | 14991 ft | 341 kts | 333° |
| 2026-04-21 23:28 | 44.73976 | 26.31460 | 15874 ft | 348 kts | 343° |
| 2026-04-21 23:28 | 44.76370 | 26.30808 | 16645 ft | 354 kts | 348° |
| 2026-04-21 23:28 | 44.78837 | 26.30375 | 16984 ft | 358 kts | 351° |
| 2026-04-21 23:29 | 44.80475 | 26.30145 | 17057 ft | 358 kts | 351° |
| 2026-04-21 23:29 | 44.82960 | 26.29820 | 17075 ft | 359 kts | 351° |
| 2026-04-21 23:29 | 44.85445 | 26.29491 | 17081 ft | 358 kts | 351° |
| 2026-04-21 23:29 | 44.87926 | 26.29151 | 17088 ft | 358 kts | 352° |
| 2026-04-21 23:30 | 44.90421 | 26.29357 | 17080 ft | 364 kts | 10° |
| 2026-04-21 23:30 | 44.92769 | 26.30742 | 17081 ft | 371 kts | 30° |
| 2026-04-21 23:30 | 44.94699 | 26.33183 | 17091 ft | 377 kts | 47° |
| 2026-04-21 23:30 | 44.96320 | 26.36102 | 17086 ft | 378 kts | 50° |
| 2026-04-21 23:31 | 44.97889 | 26.39079 | 17079 ft | 378 kts | 51° |
| 2026-04-21 23:31 | 44.99612 | 26.41839 | 17084 ft | 373 kts | 37° |
| 2026-04-21 23:31 | 45.01804 | 26.43716 | 17085 ft | 367 kts | 18° |
| 2026-04-21 23:31 | 45.04253 | 26.44602 | 17081 ft | 363 kts | 7° |
| 2026-04-21 23:32 | 45.06739 | 26.45225 | 17080 ft | 362 kts | 7° |
| 2026-04-21 23:32 | 45.09217 | 26.45843 | 17082 ft | 362 kts | 7° |
| 2026-04-21 23:32 | 45.11697 | 26.46462 | 17083 ft | 362 kts | 7° |
| 2026-04-21 23:32 | 45.14181 | 26.47086 | 17084 ft | 363 kts | 7° |
| 2026-04-21 23:33 | 45.16678 | 26.47715 | 17087 ft | 372 kts | 7° |
| 2026-04-21 23:33 | 45.19314 | 26.48375 | 17085 ft | 395 kts | 7° |
| 2026-04-21 23:33 | 45.22036 | 26.49062 | 17086 ft | 398 kts | 7° |
| 2026-04-21 23:33 | 45.24765 | 26.49757 | 17088 ft | 398 kts | 7° |
| 2026-04-21 23:34 | 45.27494 | 26.50453 | 17085 ft | 398 kts | 7° |
| 2026-04-21 23:34 | 45.30218 | 26.51147 | 17090 ft | 398 kts | 7° |
| 2026-04-21 23:34 | 45.32944 | 26.51841 | 17087 ft | 398 kts | 7° |
| 2026-04-21 23:34 | 45.35668 | 26.52535 | 17091 ft | 398 kts | 7° |
| 2026-04-21 23:35 | 45.38397 | 26.53231 | 17089 ft | 398 kts | 7° |
| 2026-04-21 23:35 | 45.41119 | 26.53925 | 17094 ft | 398 kts | 7° |
| 2026-04-21 23:35 | 45.43845 | 26.54621 | 17092 ft | 398 kts | 7° |
| 2026-04-21 23:35 | 45.46571 | 26.55318 | 17093 ft | 398 kts | 7° |
| 2026-04-21 23:36 | 45.49290 | 26.56013 | 17092 ft | 397 kts | 7° |
| 2026-04-21 23:36 | 45.52015 | 26.56711 | 17095 ft | 397 kts | 7° |
| 2026-04-21 23:36 | 45.54737 | 26.57408 | 17095 ft | 397 kts | 7° |
| 2026-04-21 23:36 | 45.57421 | 26.58097 | 17096 ft | 398 kts | 7° |
| 2026-04-21 23:37 | 45.60142 | 26.58795 | 17092 ft | 397 kts | 7° |
| 2026-04-21 23:37 | 45.62861 | 26.59494 | 17094 ft | 397 kts | 7° |
| 2026-04-21 23:37 | 45.65579 | 26.60193 | 17098 ft | 397 kts | 7° |
| 2026-04-21 23:37 | 45.68296 | 26.60892 | 17095 ft | 397 kts | 7° |
| 2026-04-21 23:38 | 45.71011 | 26.61592 | 17092 ft | 397 kts | 7° |
| 2026-04-21 23:38 | 45.73729 | 26.62294 | 17071 ft | 395 kts | 7° |
| 2026-04-21 23:38 | 45.76427 | 26.62992 | 16716 ft | 393 kts | 7° |
| 2026-04-21 23:38 | 45.79111 | 26.63686 | 16122 ft | 390 kts | 7° |
| 2026-04-21 23:39 | 45.81770 | 26.64375 | 15418 ft | 387 kts | 7° |
| 2026-04-21 23:39 | 45.84405 | 26.65058 | 14673 ft | 384 kts | 7° |
| 2026-04-21 23:39 | 45.87019 | 26.65737 | 13958 ft | 380 kts | 7° |
| 2026-04-21 23:39 | 45.89613 | 26.66410 | 13197 ft | 376 kts | 7° |
| 2026-04-21 23:40 | 45.92176 | 26.67074 | 12443 ft | 373 kts | 7° |
| 2026-04-21 23:40 | 45.94708 | 26.67730 | 11863 ft | 367 kts | 7° |
| 2026-04-21 23:40 | 45.97237 | 26.68386 | 11332 ft | 370 kts | 7° |
| 2026-04-21 23:40 | 45.99757 | 26.69040 | 10799 ft | 365 kts | 8° |
| 2026-04-21 23:41 | 46.02251 | 26.69689 | 10295 ft | 364 kts | 8° |
| 2026-04-21 23:41 | 46.04728 | 26.70335 | 10033 ft | 362 kts | 8° |
| 2026-04-21 23:41 | 46.07207 | 26.70983 | 9839 ft | 362 kts | 8° |
| 2026-04-21 23:41 | 46.09686 | 26.71631 | 9700 ft | 362 kts | 8° |
| 2026-04-21 23:42 | 46.12161 | 26.72279 | 9316 ft | 362 kts | 8° |
| 2026-04-21 23:42 | 46.14614 | 26.72923 | 8873 ft | 352 kts | 8° |
| 2026-04-21 23:42 | 46.16965 | 26.73542 | 8690 ft | 335 kts | 9° |
| 2026-04-21 23:42 | 46.19179 | 26.74126 | 8515 ft | 319 kts | 9° |
| 2026-04-21 23:43 | 46.21312 | 26.74688 | 8368 ft | 304 kts | 9° |
| 2026-04-21 23:43 | 46.23345 | 26.75223 | 8239 ft | 290 kts | 9° |
| 2026-04-21 23:43 | 46.25278 | 26.75733 | 7994 ft | 275 kts | 9° |
| 2026-04-21 23:43 | 46.27143 | 26.76226 | 7465 ft | 271 kts | 11° |
| 2026-04-21 23:44 | 46.28842 | 26.77296 | 6951 ft | 266 kts | 38° |
| 2026-04-21 23:44 | 46.29927 | 26.79329 | 6771 ft | 249 kts | 67° |
| 2026-04-21 23:44 | 46.30462 | 26.81615 | 6636 ft | 232 kts | 72° |
| 2026-04-21 23:44 | 46.30920 | 26.83775 | 6514 ft | 216 kts | 72° |
| 2026-04-21 23:45 | 46.31348 | 26.85769 | 6365 ft | 200 kts | 71° |
| 2026-04-21 23:45 | 46.32159 | 26.89460 | 5761 ft | 190 kts | 77° |
| 2026-04-21 23:45 | 46.32476 | 26.91313 | 5377 ft | 190 kts | 71° |
| 2026-04-21 23:46 | 46.32931 | 26.93096 | 5026 ft | 188 kts | 66° |
| 2026-04-21 23:46 | 46.33479 | 26.94811 | 4690 ft | 185 kts | 62° |
| 2026-04-21 23:46 | 46.34126 | 26.96336 | 4536 ft | 172 kts | 44° |
| 2026-04-21 23:46 | 46.35088 | 26.97203 | 4359 ft | 160 kts | 17° |
| 2026-04-21 23:47 | 46.36189 | 26.97324 | 3879 ft | 161 kts | 349° |
| 2026-04-21 23:47 | 46.37235 | 26.96884 | 3604 ft | 150 kts | 343° |
| 2026-04-21 23:47 | 46.38196 | 26.96484 | 3388 ft | 139 kts | 345° |
| 2026-04-21 23:47 | 46.39125 | 26.96153 | 3152 ft | 141 kts | 346° |
| 2026-04-21 23:48 | 46.40071 | 26.95785 | 2943 ft | 140 kts | 345° |
| 2026-04-21 23:48 | 46.41008 | 26.95420 | 2746 ft | 139 kts | 345° |
| 2026-04-21 23:48 | 46.41940 | 26.95053 | 2558 ft | 138 kts | 345° |
| 2026-04-21 23:48 | 46.42865 | 26.94690 | 2360 ft | 138 kts | 345° |
| 2026-04-21 23:49 | 46.43793 | 26.94326 | 2169 ft | 138 kts | 344° |
| 2026-04-21 23:49 | 46.44721 | 26.93961 | 1970 ft | 138 kts | 344° |
| 2026-04-21 23:49 | 46.45647 | 26.93597 | 1769 ft | 138 kts | 344° |
| 2026-04-21 23:49 | 46.46574 | 26.93233 | 1562 ft | 138 kts | 344° |
| 2026-04-21 23:50 | 46.47507 | 26.92873 | 1386 ft | 139 kts | 345° |
| 2026-04-21 23:50 | 46.48444 | 26.92513 | 1140 ft | 139 kts | 345° |
| 2026-04-21 23:50 | 46.49375 | 26.92144 | 976 ft | 138 kts | 345° |
| 2026-04-21 23:50 | 46.50291 | 26.91769 | 793 ft | 138 kts | 345° |
| 2026-04-21 23:51 | 46.51218 | 26.91403 | 639 ft | 138 kts | 345° |
| 2026-04-21 23:51 | 46.52087 | 26.91054 | 621 ft | 112 kts | 345° |
| 2026-04-21 23:51 | 46.52643 | 26.90838 | 619 ft | 54 kts | 345° |
| 2026-04-21 23:51 | 46.52816 | 26.90769 | 613 ft | 3 kts | 345° |
| 2026-04-21 23:52 | 46.52862 | 26.90752 | 619 ft | 10 kts | 346° |
| 2026-04-21 23:52 | 46.52943 | 26.90738 | 622 ft | 14 kts | 347° |
| 2026-04-21 23:52 | 46.53022 | 26.90700 | 619 ft | 17 kts | 342° |